Decatur, Texas
Current Conditions -  °F | °C
As of 5:35 PM on Monday 20 Oct 2014 (Local Time) from KLUD Reporting Station
Scattered Clouds Scattered Clouds  
Wind Chill: 78°   Ceiling: Unl
Heat Index: 79°   Visibility: 10mi
Dew Point: 57°   Wind: 5mph
Humidity: 48%   Direction: 110°ESE
Pressure: 30.02"   Gusts: NA
Location:  33.23°N, 97.59°W
Report Text: KLUD 202235Z AUTO 11004KT 10SM SCT075 26/14 A3002 RMK AO2 T02570140
Loading
Personal Weather Stations






























Interactive Weather Map
Tropical Storm Tracking
New forecast layout! Learn more

10-Day Weather Forecast

Advertisements
Track Severe Weather on mobile